sensor_id;sensor_type;location;lat;lon;timestamp;P1;durP1;ratioP1;P2;durP2;ratioP2
20417;SDS011;10368;51.436;6.774;2023-05-10T00:01:49;21.00;;;13.10;;
20417;SDS011;10368;51.436;6.774;2023-05-10T00:04:17;23.17;;;13.50;;
20417;SDS011;10368;51.436;6.774;2023-05-10T00:06:44;21.77;;;14.63;;
20417;SDS011;10368;51.436;6.774;2023-05-10T00:09:11;21.57;;;12.63;;
20417;SDS011;10368;51.436;6.774;2023-05-10T00:11:38;24.57;;;13.60;;
20417;SDS011;10368;51.436;6.774;2023-05-10T00:14:05;22.03;;;13.17;;
20417;SDS011;10368;51.436;6.774;2023-05-10T00:16:33;17.53;;;12.10;;
20417;SDS011;10368;51.436;6.774;2023-05-10T00:19:00;16.83;;;11.13;;
20417;SDS011;10368;51.436;6.774;2023-05-10T00:21:27;14.33;;;10.20;;
20417;SDS011;10368;51.436;6.774;2023-05-10T00:23:54;18.10;;;11.37;;
20417;SDS011;10368;51.436;6.774;2023-05-10T00:26:22;15.67;;;10.40;;
20417;SDS011;10368;51.436;6.774;2023-05-10T00:28:49;18.33;;;10.97;;
20417;SDS011;10368;51.436;6.774;2023-05-10T00:31:16;19.17;;;11.50;;
20417;SDS011;10368;51.436;6.774;2023-05-10T00:33:43;19.27;;;12.07;;
20417;SDS011;10368;51.436;6.774;2023-05-10T00:36:10;22.43;;;12.10;;
20417;SDS011;10368;51.436;6.774;2023-05-10T00:38:38;17.60;;;11.93;;
20417;SDS011;10368;51.436;6.774;2023-05-10T00:41:05;19.77;;;11.93;;
20417;SDS011;10368;51.436;6.774;2023-05-10T00:43:32;18.93;;;10.93;;
20417;SDS011;10368;51.436;6.774;2023-05-10T00:45:59;19.50;;;12.83;;
20417;SDS011;10368;51.436;6.774;2023-05-10T00:48:28;17.77;;;12.03;;
20417;SDS011;10368;51.436;6.774;2023-05-10T00:50:55;18.90;;;11.23;;
20417;SDS011;10368;51.436;6.774;2023-05-10T00:53:23;22.73;;;11.53;;
20417;SDS011;10368;51.436;6.774;2023-05-10T00:55:50;22.50;;;12.63;;
20417;SDS011;10368;51.436;6.774;2023-05-10T00:58:17;18.73;;;11.47;;
20417;SDS011;10368;51.436;6.774;2023-05-10T01:00:45;21.80;;;13.07;;
20417;SDS011;10368;51.436;6.774;2023-05-10T01:03:14;20.40;;;12.43;;
20417;SDS011;10368;51.436;6.774;2023-05-10T01:05:41;24.47;;;14.03;;
20417;SDS011;10368;51.436;6.774;2023-05-10T01:08:09;19.57;;;13.60;;
20417;SDS011;10368;51.436;6.774;2023-05-10T01:10:36;21.47;;;13.80;;
20417;SDS011;10368;51.436;6.774;2023-05-10T01:13:03;20.27;;;13.87;;
20417;SDS011;10368;51.436;6.774;2023-05-10T01:15:30;28.33;;;14.53;;
20417;SDS011;10368;51.436;6.774;2023-05-10T01:17:58;21.30;;;13.37;;
20417;SDS011;10368;51.436;6.774;2023-05-10T01:20:25;23.67;;;13.97;;
20417;SDS011;10368;51.436;6.774;2023-05-10T01:23:12;22.87;;;14.03;;
20417;SDS011;10368;51.436;6.774;2023-05-10T01:31:06;20.43;;;12.90;;
20417;SDS011;10368;51.436;6.774;2023-05-10T01:33:39;19.63;;;11.33;;
20417;SDS011;10368;51.436;6.774;2023-05-10T01:36:17;20.20;;;12.63;;
20417;SDS011;10368;51.436;6.774;2023-05-10T01:41:30;18.20;;;11.87;;
20417;SDS011;10368;51.436;6.774;2023-05-10T01:46:35;21.10;;;13.17;;
20417;SDS011;10368;51.436;6.774;2023-05-10T01:49:10;22.50;;;13.20;;
20417;SDS011;10368;51.436;6.774;2023-05-10T01:51:39;22.40;;;12.90;;
20417;SDS011;10368;51.436;6.774;2023-05-10T01:54:08;20.00;;;12.33;;
20417;SDS011;10368;51.436;6.774;2023-05-10T01:56:37;19.37;;;13.17;;
20417;SDS011;10368;51.436;6.774;2023-05-10T01:59:06;22.60;;;13.67;;
20417;SDS011;10368;51.436;6.774;2023-05-10T02:01:34;20.90;;;12.93;;
20417;SDS011;10368;51.436;6.774;2023-05-10T02:04:04;22.37;;;14.03;;
20417;SDS011;10368;51.436;6.774;2023-05-10T02:06:33;26.33;;;14.80;;
20417;SDS011;10368;51.436;6.774;2023-05-10T02:09:01;31.30;;;16.70;;
20417;SDS011;10368;51.436;6.774;2023-05-10T02:11:29;28.70;;;15.97;;
20417;SDS011;10368;51.436;6.774;2023-05-10T02:13:57;29.10;;;16.40;;
20417;SDS011;10368;51.436;6.774;2023-05-10T02:16:25;29.17;;;17.03;;
20417;SDS011;10368;51.436;6.774;2023-05-10T02:18:53;29.30;;;16.10;;
20417;SDS011;10368;51.436;6.774;2023-05-10T02:21:21;22.87;;;15.20;;
20417;SDS011;10368;51.436;6.774;2023-05-10T02:23:48;32.60;;;16.33;;
20417;SDS011;10368;51.436;6.774;2023-05-10T02:26:17;28.23;;;15.60;;
20417;SDS011;10368;51.436;6.774;2023-05-10T02:28:44;26.30;;;16.43;;
20417;SDS011;10368;51.436;6.774;2023-05-10T02:31:12;27.90;;;16.00;;
20417;SDS011;10368;51.436;6.774;2023-05-10T02:33:40;28.70;;;16.83;;
20417;SDS011;10368;51.436;6.774;2023-05-10T02:36:08;30.93;;;17.83;;
20417;SDS011;10368;51.436;6.774;2023-05-10T02:38:36;30.27;;;16.17;;
20417;SDS011;10368;51.436;6.774;2023-05-10T02:41:03;30.40;;;17.23;;
20417;SDS011;10368;51.436;6.774;2023-05-10T02:43:32;25.13;;;14.57;;
20417;SDS011;10368;51.436;6.774;2023-05-10T02:46:00;28.27;;;15.53;;
20417;SDS011;10368;51.436;6.774;2023-05-10T02:48:27;33.00;;;18.47;;
20417;SDS011;10368;51.436;6.774;2023-05-10T02:50:55;36.97;;;18.87;;
20417;SDS011;10368;51.436;6.774;2023-05-10T02:53:23;35.57;;;17.83;;
20417;SDS011;10368;51.436;6.774;2023-05-10T02:55:57;29.17;;;16.37;;
20417;SDS011;10368;51.436;6.774;2023-05-10T02:58:25;29.83;;;15.07;;
20417;SDS011;10368;51.436;6.774;2023-05-10T03:00:53;26.60;;;15.27;;
20417;SDS011;10368;51.436;6.774;2023-05-10T03:03:20;24.63;;;13.93;;
20417;SDS011;10368;51.436;6.774;2023-05-10T03:05:48;25.87;;;14.27;;
20417;SDS011;10368;51.436;6.774;2023-05-10T03:08:15;20.13;;;12.33;;
20417;SDS011;10368;51.436;6.774;2023-05-10T03:13:39;30.00;;;15.20;;
20417;SDS011;10368;51.436;6.774;2023-05-10T03:16:19;26.07;;;14.93;;
20417;SDS011;10368;51.436;6.774;2023-05-10T03:21:47;26.47;;;16.00;;
20417;SDS011;10368;51.436;6.774;2023-05-10T03:24:17;37.17;;;17.87;;
20417;SDS011;10368;51.436;6.774;2023-05-10T03:26:46;33.93;;;16.90;;
20417;SDS011;10368;51.436;6.774;2023-05-10T03:29:14;43.03;;;17.97;;
20417;SDS011;10368;51.436;6.774;2023-05-10T03:31:41;59.60;;;17.03;;
20417;SDS011;10368;51.436;6.774;2023-05-10T03:34:09;24.80;;;14.67;;
20417;SDS011;10368;51.436;6.774;2023-05-10T03:36:36;29.27;;;16.33;;
20417;SDS011;10368;51.436;6.774;2023-05-10T03:39:03;34.17;;;16.73;;
20417;SDS011;10368;51.436;6.774;2023-05-10T03:41:30;33.10;;;16.17;;
20417;SDS011;10368;51.436;6.774;2023-05-10T03:43:58;41.60;;;18.90;;
20417;SDS011;10368;51.436;6.774;2023-05-10T03:46:25;32.53;;;17.13;;
20417;SDS011;10368;51.436;6.774;2023-05-10T03:48:52;43.70;;;20.20;;
20417;SDS011;10368;51.436;6.774;2023-05-10T03:51:19;42.07;;;19.63;;
20417;SDS011;10368;51.436;6.774;2023-05-10T03:53:46;38.23;;;18.40;;
20417;SDS011;10368;51.436;6.774;2023-05-10T03:56:14;51.60;;;20.10;;
20417;SDS011;10368;51.436;6.774;2023-05-10T03:58:41;47.17;;;20.67;;
20417;SDS011;10368;51.436;6.774;2023-05-10T04:01:08;32.33;;;18.70;;
20417;SDS011;10368;51.436;6.774;2023-05-10T04:03:35;46.33;;;19.47;;
20417;SDS011;10368;51.436;6.774;2023-05-10T04:06:03;34.50;;;17.73;;
20417;SDS011;10368;51.436;6.774;2023-05-10T04:08:31;30.77;;;16.60;;
20417;SDS011;10368;51.436;6.774;2023-05-10T04:11:08;40.50;;;19.97;;
20417;SDS011;10368;51.436;6.774;2023-05-10T04:13:35;43.87;;;19.27;;
20417;SDS011;10368;51.436;6.774;2023-05-10T04:16:02;41.37;;;20.00;;
20417;SDS011;10368;51.436;6.774;2023-05-10T04:18:30;35.00;;;19.33;;
20417;SDS011;10368;51.436;6.774;2023-05-10T04:20:57;38.33;;;18.83;;
20417;SDS011;10368;51.436;6.774;2023-05-10T04:23:25;49.47;;;22.70;;
20417;SDS011;10368;51.436;6.774;2023-05-10T04:25:58;39.80;;;19.27;;
20417;SDS011;10368;51.436;6.774;2023-05-10T04:28:25;47.57;;;22.07;;
20417;SDS011;10368;51.436;6.774;2023-05-10T04:30:53;53.67;;;21.73;;
20417;SDS011;10368;51.436;6.774;2023-05-10T04:33:20;45.90;;;20.90;;
20417;SDS011;10368;51.436;6.774;2023-05-10T04:35:47;45.57;;;20.10;;
20417;SDS011;10368;51.436;6.774;2023-05-10T04:38:15;57.13;;;23.17;;
20417;SDS011;10368;51.436;6.774;2023-05-10T04:40:42;52.03;;;21.70;;
20417;SDS011;10368;51.436;6.774;2023-05-10T04:43:09;55.07;;;23.00;;
20417;SDS011;10368;51.436;6.774;2023-05-10T04:45:36;52.43;;;23.07;;
20417;SDS011;10368;51.436;6.774;2023-05-10T04:48:03;48.40;;;23.37;;
20417;SDS011;10368;51.436;6.774;2023-05-10T04:50:31;58.70;;;24.90;;
20417;SDS011;10368;51.436;6.774;2023-05-10T04:52:58;57.87;;;25.83;;
20417;SDS011;10368;51.436;6.774;2023-05-10T04:55:26;53.60;;;22.97;;
20417;SDS011;10368;51.436;6.774;2023-05-10T04:57:53;57.60;;;24.67;;
20417;SDS011;10368;51.436;6.774;2023-05-10T05:00:25;52.77;;;25.63;;
20417;SDS011;10368;51.436;6.774;2023-05-10T05:02:52;54.97;;;25.10;;
20417;SDS011;10368;51.436;6.774;2023-05-10T05:05:19;53.27;;;24.73;;
20417;SDS011;10368;51.436;6.774;2023-05-10T05:07:46;58.30;;;23.83;;
20417;SDS011;10368;51.436;6.774;2023-05-10T05:10:13;55.17;;;26.10;;
20417;SDS011;10368;51.436;6.774;2023-05-10T05:12:41;56.40;;;26.73;;
20417;SDS011;10368;51.436;6.774;2023-05-10T05:15:10;50.93;;;24.83;;
20417;SDS011;10368;51.436;6.774;2023-05-10T05:17:37;52.80;;;24.73;;
20417;SDS011;10368;51.436;6.774;2023-05-10T05:20:05;42.37;;;23.70;;
20417;SDS011;10368;51.436;6.774;2023-05-10T05:22:32;46.97;;;22.77;;
20417;SDS011;10368;51.436;6.774;2023-05-10T05:24:59;46.07;;;22.47;;
20417;SDS011;10368;51.436;6.774;2023-05-10T05:27:29;43.63;;;22.27;;
20417;SDS011;10368;51.436;6.774;2023-05-10T05:29:56;45.40;;;23.37;;
20417;SDS011;10368;51.436;6.774;2023-05-10T05:32:24;49.50;;;23.37;;
20417;SDS011;10368;51.436;6.774;2023-05-10T05:34:51;44.23;;;22.37;;
20417;SDS011;10368;51.436;6.774;2023-05-10T05:37:19;46.97;;;24.57;;
20417;SDS011;10368;51.436;6.774;2023-05-10T05:39:47;46.47;;;24.97;;
20417;SDS011;10368;51.436;6.774;2023-05-10T05:42:14;52.80;;;23.90;;
20417;SDS011;10368;51.436;6.774;2023-05-10T05:44:44;45.13;;;22.83;;
20417;SDS011;10368;51.436;6.774;2023-05-10T05:47:11;45.60;;;23.00;;
20417;SDS011;10368;51.436;6.774;2023-05-10T05:49:39;47.57;;;24.53;;
20417;SDS011;10368;51.436;6.774;2023-05-10T05:52:06;49.23;;;24.83;;
20417;SDS011;10368;51.436;6.774;2023-05-10T05:54:33;55.50;;;25.53;;
20417;SDS011;10368;51.436;6.774;2023-05-10T05:57:00;54.67;;;24.47;;
20417;SDS011;10368;51.436;6.774;2023-05-10T05:59:28;55.17;;;26.87;;
20417;SDS011;10368;51.436;6.774;2023-05-10T06:01:55;60.53;;;27.83;;
20417;SDS011;10368;51.436;6.774;2023-05-10T06:04:22;60.57;;;26.67;;
20417;SDS011;10368;51.436;6.774;2023-05-10T06:06:49;50.00;;;23.70;;
20417;SDS011;10368;51.436;6.774;2023-05-10T06:09:17;57.47;;;25.77;;
20417;SDS011;10368;51.436;6.774;2023-05-10T06:11:44;230.30;;;115.07;;
20417;SDS011;10368;51.436;6.774;2023-05-10T06:14:11;60.77;;;27.87;;
20417;SDS011;10368;51.436;6.774;2023-05-10T06:16:38;60.57;;;27.40;;
20417;SDS011;10368;51.436;6.774;2023-05-10T06:19:05;55.90;;;25.30;;
20417;SDS011;10368;51.436;6.774;2023-05-10T06:21:33;53.57;;;26.57;;
20417;SDS011;10368;51.436;6.774;2023-05-10T06:24:00;57.93;;;26.53;;
20417;SDS011;10368;51.436;6.774;2023-05-10T06:26:28;55.17;;;27.40;;
20417;SDS011;10368;51.436;6.774;2023-05-10T06:28:56;63.93;;;27.87;;
20417;SDS011;10368;51.436;6.774;2023-05-10T06:31:23;53.83;;;25.43;;
20417;SDS011;10368;51.436;6.774;2023-05-10T06:33:50;60.97;;;26.85;;
20417;SDS011;10368;51.436;6.774;2023-05-10T06:36:19;62.00;;;27.70;;
20417;SDS011;10368;51.436;6.774;2023-05-10T06:38:48;59.05;;;26.77;;
20417;SDS011;10368;51.436;6.774;2023-05-10T06:41:15;61.38;;;28.38;;
20417;SDS011;10368;51.436;6.774;2023-05-10T06:43:42;57.35;;;26.73;;
20417;SDS011;10368;51.436;6.774;2023-05-10T06:46:09;56.25;;;25.48;;
20417;SDS011;10368;51.436;6.774;2023-05-10T06:48:36;65.95;;;27.60;;
20417;SDS011;10368;51.436;6.774;2023-05-10T06:51:04;54.80;;;25.52;;
20417;SDS011;10368;51.436;6.774;2023-05-10T06:53:31;50.40;;;24.42;;
20417;SDS011;10368;51.436;6.774;2023-05-10T06:55:58;56.25;;;24.67;;
20417;SDS011;10368;51.436;6.774;2023-05-10T06:58:26;62.30;;;25.75;;
20417;SDS011;10368;51.436;6.774;2023-05-10T07:00:53;65.90;;;27.33;;
20417;SDS011;10368;51.436;6.774;2023-05-10T07:03:20;65.43;;;27.75;;
20417;SDS011;10368;51.436;6.774;2023-05-10T07:05:47;54.28;;;26.20;;
20417;SDS011;10368;51.436;6.774;2023-05-10T07:08:14;60.25;;;27.45;;
20417;SDS011;10368;51.436;6.774;2023-05-10T07:10:42;63.20;;;26.65;;
20417;SDS011;10368;51.436;6.774;2023-05-10T07:13:09;62.50;;;27.30;;
20417;SDS011;10368;51.436;6.774;2023-05-10T07:15:36;53.17;;;25.45;;
20417;SDS011;10368;51.436;6.774;2023-05-10T07:18:04;58.33;;;25.50;;
20417;SDS011;10368;51.436;6.774;2023-05-10T07:20:32;57.00;;;25.08;;
20417;SDS011;10368;51.436;6.774;2023-05-10T07:23:00;50.20;;;23.25;;
20417;SDS011;10368;51.436;6.774;2023-05-10T07:25:27;48.28;;;24.08;;
20417;SDS011;10368;51.436;6.774;2023-05-10T07:27:54;57.75;;;24.23;;
20417;SDS011;10368;51.436;6.774;2023-05-10T07:30:21;51.47;;;24.00;;
20417;SDS011;10368;51.436;6.774;2023-05-10T07:32:48;48.28;;;21.63;;
20417;SDS011;10368;51.436;6.774;2023-05-10T07:35:16;47.80;;;22.63;;
20417;SDS011;10368;51.436;6.774;2023-05-10T07:37:43;48.10;;;22.13;;
20417;SDS011;10368;51.436;6.774;2023-05-10T07:40:10;47.35;;;21.40;;
20417;SDS011;10368;51.436;6.774;2023-05-10T07:42:38;40.67;;;20.40;;
20417;SDS011;10368;51.436;6.774;2023-05-10T07:45:05;38.03;;;20.48;;
20417;SDS011;10368;51.436;6.774;2023-05-10T07:47:32;40.38;;;19.58;;
20417;SDS011;10368;51.436;6.774;2023-05-10T07:49:59;39.35;;;19.67;;
20417;SDS011;10368;51.436;6.774;2023-05-10T07:52:27;37.40;;;17.92;;
20417;SDS011;10368;51.436;6.774;2023-05-10T07:54:54;38.60;;;21.00;;
20417;SDS011;10368;51.436;6.774;2023-05-10T07:57:23;36.42;;;19.95;;
20417;SDS011;10368;51.436;6.774;2023-05-10T07:59:50;37.30;;;19.73;;
20417;SDS011;10368;51.436;6.774;2023-05-10T08:02:17;41.28;;;21.83;;
20417;SDS011;10368;51.436;6.774;2023-05-10T08:04:44;43.78;;;20.77;;
20417;SDS011;10368;51.436;6.774;2023-05-10T08:07:12;47.65;;;21.52;;
20417;SDS011;10368;51.436;6.774;2023-05-10T08:09:39;48.55;;;22.77;;
20417;SDS011;10368;51.436;6.774;2023-05-10T08:12:06;45.92;;;22.05;;
20417;SDS011;10368;51.436;6.774;2023-05-10T08:14:33;44.58;;;21.73;;
20417;SDS011;10368;51.436;6.774;2023-05-10T08:17:03;45.70;;;22.10;;
20417;SDS011;10368;51.436;6.774;2023-05-10T08:19:30;46.15;;;22.33;;
20417;SDS011;10368;51.436;6.774;2023-05-10T08:21:57;47.80;;;22.73;;
20417;SDS011;10368;51.436;6.774;2023-05-10T08:24:24;46.55;;;22.92;;
20417;SDS011;10368;51.436;6.774;2023-05-10T08:26:51;37.58;;;21.13;;
20417;SDS011;10368;51.436;6.774;2023-05-10T08:29:18;42.75;;;21.38;;
20417;SDS011;10368;51.436;6.774;2023-05-10T08:31:46;41.20;;;21.77;;
20417;SDS011;10368;51.436;6.774;2023-05-10T08:34:13;32.58;;;18.92;;
20417;SDS011;10368;51.436;6.774;2023-05-10T08:36:41;33.55;;;18.60;;
20417;SDS011;10368;51.436;6.774;2023-05-10T08:39:08;43.72;;;20.33;;
20417;SDS011;10368;51.436;6.774;2023-05-10T08:41:54;34.67;;;18.73;;
20417;SDS011;10368;51.436;6.774;2023-05-10T08:44:25;30.45;;;17.55;;
20417;SDS011;10368;51.436;6.774;2023-05-10T08:46:53;33.25;;;20.08;;
20417;SDS011;10368;51.436;6.774;2023-05-10T08:49:20;31.33;;;19.65;;
20417;SDS011;10368;51.436;6.774;2023-05-10T08:51:49;38.85;;;21.73;;
20417;SDS011;10368;51.436;6.774;2023-05-10T08:54:17;42.95;;;21.55;;
20417;SDS011;10368;51.436;6.774;2023-05-10T08:56:44;34.97;;;19.33;;
20417;SDS011;10368;51.436;6.774;2023-05-10T08:59:14;36.55;;;20.45;;
20417;SDS011;10368;51.436;6.774;2023-05-10T09:01:42;34.45;;;20.80;;
20417;SDS011;10368;51.436;6.774;2023-05-10T09:04:10;38.72;;;21.40;;
20417;SDS011;10368;51.436;6.774;2023-05-10T09:06:38;34.92;;;20.35;;
20417;SDS011;10368;51.436;6.774;2023-05-10T09:09:05;32.63;;;19.45;;
20417;SDS011;10368;51.436;6.774;2023-05-10T09:11:33;35.30;;;17.98;;
20417;SDS011;10368;51.436;6.774;2023-05-10T09:14:01;27.67;;;16.60;;
20417;SDS011;10368;51.436;6.774;2023-05-10T09:16:28;27.40;;;15.43;;
20417;SDS011;10368;51.436;6.774;2023-05-10T09:18:56;33.67;;;17.02;;
20417;SDS011;10368;51.436;6.774;2023-05-10T09:21:23;24.50;;;15.85;;
20417;SDS011;10368;51.436;6.774;2023-05-10T09:23:50;24.17;;;16.33;;
20417;SDS011;10368;51.436;6.774;2023-05-10T09:26:23;27.30;;;15.90;;
20417;SDS011;10368;51.436;6.774;2023-05-10T09:28:56;26.80;;;16.75;;
20417;SDS011;10368;51.436;6.774;2023-05-10T09:31:24;23.95;;;14.82;;
20417;SDS011;10368;51.436;6.774;2023-05-10T09:33:52;20.00;;;15.32;;
20417;SDS011;10368;51.436;6.774;2023-05-10T09:36:19;24.58;;;16.08;;
20417;SDS011;10368;51.436;6.774;2023-05-10T09:41:17;19.77;;;14.88;;
20417;SDS011;10368;51.436;6.774;2023-05-10T09:43:45;22.88;;;15.55;;
20417;SDS011;10368;51.436;6.774;2023-05-10T09:46:12;24.52;;;16.33;;
20417;SDS011;10368;51.436;6.774;2023-05-10T09:48:41;23.98;;;15.27;;
20417;SDS011;10368;51.436;6.774;2023-05-10T09:51:09;26.42;;;15.43;;
20417;SDS011;10368;51.436;6.774;2023-05-10T09:53:36;25.48;;;15.95;;
20417;SDS011;10368;51.436;6.774;2023-05-10T09:56:03;32.45;;;16.75;;
20417;SDS011;10368;51.436;6.774;2023-05-10T09:58:31;20.80;;;16.13;;
20417;SDS011;10368;51.436;6.774;2023-05-10T10:01:02;26.65;;;16.90;;
20417;SDS011;10368;51.436;6.774;2023-05-10T10:03:29;24.60;;;16.13;;
20417;SDS011;10368;51.436;6.774;2023-05-10T10:05:57;23.23;;;16.77;;
20417;SDS011;10368;51.436;6.774;2023-05-10T10:08:24;32.38;;;18.52;;
20417;SDS011;10368;51.436;6.774;2023-05-10T10:10:51;21.40;;;15.63;;
20417;SDS011;10368;51.436;6.774;2023-05-10T10:13:19;22.58;;;15.68;;
20417;SDS011;10368;51.436;6.774;2023-05-10T10:15:46;25.83;;;15.45;;
20417;SDS011;10368;51.436;6.774;2023-05-10T10:18:17;22.23;;;16.17;;
20417;SDS011;10368;51.436;6.774;2023-05-10T10:20:44;18.63;;;14.30;;
20417;SDS011;10368;51.436;6.774;2023-05-10T10:23:12;24.80;;;15.52;;
20417;SDS011;10368;51.436;6.774;2023-05-10T10:25:42;23.50;;;15.48;;
20417;SDS011;10368;51.436;6.774;2023-05-10T10:35:54;25.08;;;17.33;;
20417;SDS011;10368;51.436;6.774;2023-05-10T10:38:22;23.05;;;16.20;;
20417;SDS011;10368;51.436;6.774;2023-05-10T10:40:57;28.65;;;17.92;;
20417;SDS011;10368;51.436;6.774;2023-05-10T10:43:28;23.05;;;16.67;;
20417;SDS011;10368;51.436;6.774;2023-05-10T10:46:15;26.85;;;16.98;;
20417;SDS011;10368;51.436;6.774;2023-05-10T10:48:51;23.40;;;15.57;;
20417;SDS011;10368;51.436;6.774;2023-05-10T10:51:38;22.88;;;16.92;;
20417;SDS011;10368;51.436;6.774;2023-05-10T10:54:09;23.45;;;15.85;;
20417;SDS011;10368;51.436;6.774;2023-05-10T10:56:36;25.05;;;17.90;;
20417;SDS011;10368;51.436;6.774;2023-05-10T10:59:03;34.35;;;20.50;;
20417;SDS011;10368;51.436;6.774;2023-05-10T11:01:34;28.17;;;20.58;;
20417;SDS011;10368;51.436;6.774;2023-05-10T11:06:32;29.02;;;20.10;;
20417;SDS011;10368;51.436;6.774;2023-05-10T11:09:07;25.60;;;17.50;;
20417;SDS011;10368;51.436;6.774;2023-05-10T11:11:35;23.13;;;17.73;;
20417;SDS011;10368;51.436;6.774;2023-05-10T11:14:03;31.05;;;19.25;;
20417;SDS011;10368;51.436;6.774;2023-05-10T11:16:40;22.83;;;18.17;;
20417;SDS011;10368;51.436;6.774;2023-05-10T11:19:10;20.55;;;16.27;;
20417;SDS011;10368;51.436;6.774;2023-05-10T11:24:14;25.02;;;17.38;;
20417;SDS011;10368;51.436;6.774;2023-05-10T11:26:42;20.05;;;16.42;;
20417;SDS011;10368;51.436;6.774;2023-05-10T11:29:09;15.57;;;13.32;;
20417;SDS011;10368;51.436;6.774;2023-05-10T11:31:41;19.58;;;14.18;;
20417;SDS011;10368;51.436;6.774;2023-05-10T11:34:09;16.20;;;13.85;;
20417;SDS011;10368;51.436;6.774;2023-05-10T11:36:37;18.63;;;14.38;;
20417;SDS011;10368;51.436;6.774;2023-05-10T11:39:04;16.42;;;13.70;;
20417;SDS011;10368;51.436;6.774;2023-05-10T11:41:32;21.55;;;14.23;;
20417;SDS011;10368;51.436;6.774;2023-05-10T11:43:59;17.17;;;13.73;;
20417;SDS011;10368;51.436;6.774;2023-05-10T11:46:27;19.17;;;13.05;;
20417;SDS011;10368;51.436;6.774;2023-05-10T11:48:59;14.02;;;12.55;;
20417;SDS011;10368;51.436;6.774;2023-05-10T11:51:35;19.17;;;11.73;;
20417;SDS011;10368;51.436;6.774;2023-05-10T11:54:06;13.50;;;9.90;;
20417;SDS011;10368;51.436;6.774;2023-05-10T11:56:36;10.45;;;9.50;;
20417;SDS011;10368;51.436;6.774;2023-05-10T11:59:03;11.20;;;9.45;;
20417;SDS011;10368;51.436;6.774;2023-05-10T12:01:30;10.70;;;9.63;;
20417;SDS011;10368;51.436;6.774;2023-05-10T12:03:58;9.88;;;8.88;;
20417;SDS011;10368;51.436;6.774;2023-05-10T12:06:27;11.15;;;8.93;;
20417;SDS011;10368;51.436;6.774;2023-05-10T12:08:55;11.18;;;9.57;;
20417;SDS011;10368;51.436;6.774;2023-05-10T12:11:25;9.80;;;8.65;;
20417;SDS011;10368;51.436;6.774;2023-05-10T12:13:53;12.30;;;9.38;;
20417;SDS011;10368;51.436;6.774;2023-05-10T12:16:22;10.38;;;9.25;;
20417;SDS011;10368;51.436;6.774;2023-05-10T12:18:53;12.05;;;8.57;;
20417;SDS011;10368;51.436;6.774;2023-05-10T12:21:21;11.57;;;8.80;;
20417;SDS011;10368;51.436;6.774;2023-05-10T12:23:52;10.48;;;8.85;;
20417;SDS011;10368;51.436;6.774;2023-05-10T12:26:23;9.73;;;8.35;;
20417;SDS011;10368;51.436;6.774;2023-05-10T12:29:01;10.23;;;7.95;;
20417;SDS011;10368;51.436;6.774;2023-05-10T12:34:24;11.90;;;9.13;;
20417;SDS011;10368;51.436;6.774;2023-05-10T12:36:52;17.35;;;9.13;;
20417;SDS011;10368;51.436;6.774;2023-05-10T12:39:19;11.32;;;8.30;;
20417;SDS011;10368;51.436;6.774;2023-05-10T12:41:47;11.05;;;7.22;;
20417;SDS011;10368;51.436;6.774;2023-05-10T12:44:14;11.50;;;8.48;;
20417;SDS011;10368;51.436;6.774;2023-05-10T12:46:41;10.02;;;7.55;;
20417;SDS011;10368;51.436;6.774;2023-05-10T12:49:09;7.65;;;6.95;;
20417;SDS011;10368;51.436;6.774;2023-05-10T12:51:36;7.80;;;6.72;;
20417;SDS011;10368;51.436;6.774;2023-05-10T12:54:03;8.40;;;6.57;;
20417;SDS011;10368;51.436;6.774;2023-05-10T12:56:31;9.48;;;6.80;;
20417;SDS011;10368;51.436;6.774;2023-05-10T12:58:58;7.80;;;6.60;;
20417;SDS011;10368;51.436;6.774;2023-05-10T13:01:25;12.32;;;7.75;;
20417;SDS011;10368;51.436;6.774;2023-05-10T13:03:52;7.18;;;6.47;;
20417;SDS011;10368;51.436;6.774;2023-05-10T13:06:20;7.47;;;6.88;;
20417;SDS011;10368;51.436;6.774;2023-05-10T13:08:47;7.65;;;6.90;;
20417;SDS011;10368;51.436;6.774;2023-05-10T13:11:14;7.63;;;6.93;;
20417;SDS011;10368;51.436;6.774;2023-05-10T13:13:43;8.88;;;8.02;;
20417;SDS011;10368;51.436;6.774;2023-05-10T13:16:10;9.30;;;8.27;;
20417;SDS011;10368;51.436;6.774;2023-05-10T13:18:38;8.18;;;7.32;;
20417;SDS011;10368;51.436;6.774;2023-05-10T13:21:05;8.48;;;7.68;;
20417;SDS011;10368;51.436;6.774;2023-05-10T13:23:33;8.82;;;6.85;;
20417;SDS011;10368;51.436;6.774;2023-05-10T13:26:00;8.20;;;6.97;;
20417;SDS011;10368;51.436;6.774;2023-05-10T13:28:28;7.28;;;6.40;;
20417;SDS011;10368;51.436;6.774;2023-05-10T13:30:56;6.35;;;5.85;;
20417;SDS011;10368;51.436;6.774;2023-05-10T13:33:23;10.57;;;6.93;;
20417;SDS011;10368;51.436;6.774;2023-05-10T13:35:50;7.45;;;6.68;;
20417;SDS011;10368;51.436;6.774;2023-05-10T13:38:20;7.65;;;6.88;;
20417;SDS011;10368;51.436;6.774;2023-05-10T13:40:47;11.63;;;8.93;;
20417;SDS011;10368;51.436;6.774;2023-05-10T13:43:18;9.32;;;8.43;;
20417;SDS011;10368;51.436;6.774;2023-05-10T13:45:46;10.43;;;9.30;;
20417;SDS011;10368;51.436;6.774;2023-05-10T13:48:13;8.50;;;7.80;;
20417;SDS011;10368;51.436;6.774;2023-05-10T13:50:40;7.22;;;6.32;;
20417;SDS011;10368;51.436;6.774;2023-05-10T13:53:08;7.25;;;6.50;;
20417;SDS011;10368;51.436;6.774;2023-05-10T13:55:35;11.30;;;10.13;;
20417;SDS011;10368;51.436;6.774;2023-05-10T13:58:02;9.90;;;8.93;;
20417;SDS011;10368;51.436;6.774;2023-05-10T14:00:29;10.07;;;9.07;;
20417;SDS011;10368;51.436;6.774;2023-05-10T14:02:56;9.88;;;8.98;;
20417;SDS011;10368;51.436;6.774;2023-05-10T14:05:24;9.85;;;8.95;;
20417;SDS011;10368;51.436;6.774;2023-05-10T14:07:52;9.95;;;9.05;;
20417;SDS011;10368;51.436;6.774;2023-05-10T14:10:19;8.85;;;8.05;;
20417;SDS011;10368;51.436;6.774;2023-05-10T14:12:47;11.30;;;9.10;;
20417;SDS011;10368;51.436;6.774;2023-05-10T14:15:14;11.20;;;10.10;;
20417;SDS011;10368;51.436;6.774;2023-05-10T14:17:41;10.63;;;9.65;;
20417;SDS011;10368;51.436;6.774;2023-05-10T14:20:09;10.77;;;9.77;;
20417;SDS011;10368;51.436;6.774;2023-05-10T14:22:36;8.70;;;7.85;;
20417;SDS011;10368;51.436;6.774;2023-05-10T14:25:03;9.18;;;8.25;;
20417;SDS011;10368;51.436;6.774;2023-05-10T14:27:31;9.20;;;8.30;;
20417;SDS011;10368;51.436;6.774;2023-05-10T14:29:58;7.88;;;7.18;;
20417;SDS011;10368;51.436;6.774;2023-05-10T14:32:25;9.02;;;8.15;;
20417;SDS011;10368;51.436;6.774;2023-05-10T14:34:54;8.18;;;7.38;;
20417;SDS011;10368;51.436;6.774;2023-05-10T14:37:21;9.05;;;8.13;;
20417;SDS011;10368;51.436;6.774;2023-05-10T14:39:49;10.85;;;8.77;;
20417;SDS011;10368;51.436;6.774;2023-05-10T14:42:16;9.65;;;8.82;;
20417;SDS011;10368;51.436;6.774;2023-05-10T14:44:43;9.68;;;8.48;;
20417;SDS011;10368;51.436;6.774;2023-05-10T14:47:10;10.80;;;8.18;;
20417;SDS011;10368;51.436;6.774;2023-05-10T14:49:37;10.23;;;9.15;;
20417;SDS011;10368;51.436;6.774;2023-05-10T14:52:04;12.27;;;10.90;;
20417;SDS011;10368;51.436;6.774;2023-05-10T14:54:32;12.98;;;11.13;;
20417;SDS011;10368;51.436;6.774;2023-05-10T14:57:02;12.38;;;10.80;;
20417;SDS011;10368;51.436;6.774;2023-05-10T14:59:29;13.63;;;10.98;;
20417;SDS011;10368;51.436;6.774;2023-05-10T15:01:57;14.00;;;10.60;;
20417;SDS011;10368;51.436;6.774;2023-05-10T15:04:24;11.90;;;10.85;;
20417;SDS011;10368;51.436;6.774;2023-05-10T15:06:54;12.40;;;11.10;;